sensor_id;sensor_type;location;lat;lon;timestamp;temperature;humidity
1355;DHT22;671;48.972;9.276;2023-06-26T00:01:31;19.80;97.20
1355;DHT22;671;48.972;9.276;2023-06-26T00:03:59;19.70;97.20
1355;DHT22;671;48.972;9.276;2023-06-26T00:06:26;19.70;97.20
1355;DHT22;671;48.972;9.276;2023-06-26T00:08:53;19.60;96.90
1355;DHT22;671;48.972;9.276;2023-06-26T00:11:21;19.50;97.10
1355;DHT22;671;48.972;9.276;2023-06-26T00:13:48;19.50;97.40
1355;DHT22;671;48.972;9.276;2023-06-26T00:16:14;19.50;97.50
1355;DHT22;671;48.972;9.276;2023-06-26T00:18:41;19.40;97.60
1355;DHT22;671;48.972;9.276;2023-06-26T00:21:07;19.40;97.40
1355;DHT22;671;48.972;9.276;2023-06-26T00:23:34;19.40;98.90
1355;DHT22;671;48.972;9.276;2023-06-26T00:26:06;19.40;99.40
1355;DHT22;671;48.972;9.276;2023-06-26T00:28:32;19.30;99.80
1355;DHT22;671;48.972;9.276;2023-06-26T00:30:59;19.20;99.90
1355;DHT22;671;48.972;9.276;2023-06-26T00:33:25;19.20;99.90
1355;DHT22;671;48.972;9.276;2023-06-26T00:35:52;19.20;99.90
1355;DHT22;671;48.972;9.276;2023-06-26T00:38:18;19.10;99.90
1355;DHT22;671;48.972;9.276;2023-06-26T00:40:45;19.10;99.90
1355;DHT22;671;48.972;9.276;2023-06-26T00:43:11;19.10;99.90
1355;DHT22;671;48.972;9.276;2023-06-26T00:45:38;19.10;99.90
1355;DHT22;671;48.972;9.276;2023-06-26T00:48:05;19.10;99.90
1355;DHT22;671;48.972;9.276;2023-06-26T00:50:32;19.00;99.90
1355;DHT22;671;48.972;9.276;2023-06-26T00:52:58;19.00;99.90
1355;DHT22;671;48.972;9.276;2023-06-26T00:55:27;19.00;99.90
1355;DHT22;671;48.972;9.276;2023-06-26T00:57:55;18.90;99.90
1355;DHT22;671;48.972;9.276;2023-06-26T01:00:22;18.90;99.90
1355;DHT22;671;48.972;9.276;2023-06-26T01:02:49;18.90;99.90
1355;DHT22;671;48.972;9.276;2023-06-26T01:05:16;18.80;99.90
1355;DHT22;671;48.972;9.276;2023-06-26T01:07:50;18.80;99.90
1355;DHT22;671;48.972;9.276;2023-06-26T01:10:17;18.70;99.90
1355;DHT22;671;48.972;9.276;2023-06-26T01:12:45;18.70;99.90
1355;DHT22;671;48.972;9.276;2023-06-26T01:15:11;18.70;99.90
1355;DHT22;671;48.972;9.276;2023-06-26T01:17:38;18.70;99.90
1355;DHT22;671;48.972;9.276;2023-06-26T01:20:06;18.70;99.90
1355;DHT22;671;48.972;9.276;2023-06-26T01:23:05;18.60;99.90
1355;DHT22;671;48.972;9.276;2023-06-26T01:28:19;18.50;99.90
1355;DHT22;671;48.972;9.276;2023-06-26T01:30:47;18.50;99.90
1355;DHT22;671;48.972;9.276;2023-06-26T01:33:14;18.50;99.90
1355;DHT22;671;48.972;9.276;2023-06-26T01:35:41;18.40;99.90
1355;DHT22;671;48.972;9.276;2023-06-26T01:38:12;18.40;99.90
1355;DHT22;671;48.972;9.276;2023-06-26T01:40:39;18.40;99.90
1355;DHT22;671;48.972;9.276;2023-06-26T01:43:10;18.30;99.90
1355;DHT22;671;48.972;9.276;2023-06-26T01:45:39;18.30;99.90
1355;DHT22;671;48.972;9.276;2023-06-26T01:48:06;18.30;99.90
1355;DHT22;671;48.972;9.276;2023-06-26T01:50:35;18.20;99.90
1355;DHT22;671;48.972;9.276;2023-06-26T01:53:10;18.20;99.90
1355;DHT22;671;48.972;9.276;2023-06-26T01:55:46;18.20;99.90
1355;DHT22;671;48.972;9.276;2023-06-26T01:58:14;18.20;99.90
1355;DHT22;671;48.972;9.276;2023-06-26T02:00:41;18.20;99.90
1355;DHT22;671;48.972;9.276;2023-06-26T02:03:08;18.10;99.90
1355;DHT22;671;48.972;9.276;2023-06-26T02:05:34;18.10;99.90
1355;DHT22;671;48.972;9.276;2023-06-26T02:08:01;18.10;99.90
1355;DHT22;671;48.972;9.276;2023-06-26T02:10:29;18.10;99.90
1355;DHT22;671;48.972;9.276;2023-06-26T02:12:56;18.10;99.90
1355;DHT22;671;48.972;9.276;2023-06-26T02:15:22;18.00;99.90
1355;DHT22;671;48.972;9.276;2023-06-26T02:17:49;18.00;99.90
1355;DHT22;671;48.972;9.276;2023-06-26T02:20:15;18.00;99.90
1355;DHT22;671;48.972;9.276;2023-06-26T02:22:42;18.00;99.90
1355;DHT22;671;48.972;9.276;2023-06-26T02:25:09;17.90;99.90
1355;DHT22;671;48.972;9.276;2023-06-26T02:27:39;17.90;99.90
1355;DHT22;671;48.972;9.276;2023-06-26T02:30:06;17.80;99.90
1355;DHT22;671;48.972;9.276;2023-06-26T02:32:32;17.80;99.90
1355;DHT22;671;48.972;9.276;2023-06-26T02:34:59;17.80;99.90
1355;DHT22;671;48.972;9.276;2023-06-26T02:37:25;17.80;99.90
1355;DHT22;671;48.972;9.276;2023-06-26T02:39:52;17.70;99.90
1355;DHT22;671;48.972;9.276;2023-06-26T02:42:18;17.70;99.90
1355;DHT22;671;48.972;9.276;2023-06-26T02:44:45;17.70;99.90
1355;DHT22;671;48.972;9.276;2023-06-26T02:47:11;17.60;99.90
1355;DHT22;671;48.972;9.276;2023-06-26T02:49:38;17.50;99.90
1355;DHT22;671;48.972;9.276;2023-06-26T02:52:04;17.50;99.90
1355;DHT22;671;48.972;9.276;2023-06-26T02:54:31;17.50;99.90
1355;DHT22;671;48.972;9.276;2023-06-26T02:56:58;17.50;99.90
1355;DHT22;671;48.972;9.276;2023-06-26T02:59:26;17.50;99.90
1355;DHT22;671;48.972;9.276;2023-06-26T03:01:52;17.40;99.90
1355;DHT22;671;48.972;9.276;2023-06-26T03:04:19;17.40;99.90
1355;DHT22;671;48.972;9.276;2023-06-26T03:06:47;17.40;99.90
1355;DHT22;671;48.972;9.276;2023-06-26T03:09:14;17.40;99.90
1355;DHT22;671;48.972;9.276;2023-06-26T03:11:41;17.40;99.90
1355;DHT22;671;48.972;9.276;2023-06-26T03:14:07;17.40;99.90
1355;DHT22;671;48.972;9.276;2023-06-26T03:16:34;17.30;99.90
1355;DHT22;671;48.972;9.276;2023-06-26T03:19:00;17.30;99.90
1355;DHT22;671;48.972;9.276;2023-06-26T03:21:27;17.30;99.90
1355;DHT22;671;48.972;9.276;2023-06-26T03:23:53;17.20;99.90
1355;DHT22;671;48.972;9.276;2023-06-26T03:26:20;17.20;99.90
1355;DHT22;671;48.972;9.276;2023-06-26T03:28:46;17.10;99.90
1355;DHT22;671;48.972;9.276;2023-06-26T03:31:13;17.10;99.90
1355;DHT22;671;48.972;9.276;2023-06-26T03:33:40;17.00;99.90
1355;DHT22;671;48.972;9.276;2023-06-26T03:36:06;17.00;99.90
1355;DHT22;671;48.972;9.276;2023-06-26T03:38:34;17.00;99.90
1355;DHT22;671;48.972;9.276;2023-06-26T03:41:00;17.00;99.90
1355;DHT22;671;48.972;9.276;2023-06-26T03:43:27;16.90;99.90
1355;DHT22;671;48.972;9.276;2023-06-26T03:45:54;17.00;99.90
1355;DHT22;671;48.972;9.276;2023-06-26T03:48:20;16.90;99.90
1355;DHT22;671;48.972;9.276;2023-06-26T03:50:47;16.90;99.90
1355;DHT22;671;48.972;9.276;2023-06-26T03:53:13;17.00;99.90
1355;DHT22;671;48.972;9.276;2023-06-26T03:55:40;17.00;99.90
1355;DHT22;671;48.972;9.276;2023-06-26T03:58:06;17.00;99.90
1355;DHT22;671;48.972;9.276;2023-06-26T04:00:33;17.00;99.90
1355;DHT22;671;48.972;9.276;2023-06-26T04:02:59;17.10;99.90
1355;DHT22;671;48.972;9.276;2023-06-26T04:05:26;17.10;99.90
1355;DHT22;671;48.972;9.276;2023-06-26T04:07:52;17.10;99.90
1355;DHT22;671;48.972;9.276;2023-06-26T04:10:19;17.20;99.90
1355;DHT22;671;48.972;9.276;2023-06-26T04:12:47;17.30;99.90
1355;DHT22;671;48.972;9.276;2023-06-26T04:15:14;17.30;99.90
1355;DHT22;671;48.972;9.276;2023-06-26T04:17:40;17.30;99.90
1355;DHT22;671;48.972;9.276;2023-06-26T04:20:08;17.40;99.90
1355;DHT22;671;48.972;9.276;2023-06-26T04:22:35;17.40;99.90
1355;DHT22;671;48.972;9.276;2023-06-26T04:25:03;17.50;99.90
1355;DHT22;671;48.972;9.276;2023-06-26T04:27:30;17.50;99.90
1355;DHT22;671;48.972;9.276;2023-06-26T04:29:59;17.50;99.90
1355;DHT22;671;48.972;9.276;2023-06-26T04:32:25;17.50;99.90
1355;DHT22;671;48.972;9.276;2023-06-26T04:34:52;17.60;99.90
1355;DHT22;671;48.972;9.276;2023-06-26T04:37:19;17.60;99.90
1355;DHT22;671;48.972;9.276;2023-06-26T04:39:46;17.80;99.90
1355;DHT22;671;48.972;9.276;2023-06-26T04:42:12;17.90;99.90
1355;DHT22;671;48.972;9.276;2023-06-26T04:44:39;17.90;99.90
1355;DHT22;671;48.972;9.276;2023-06-26T04:47:08;18.00;99.90
1355;DHT22;671;48.972;9.276;2023-06-26T04:49:34;18.00;99.90
1355;DHT22;671;48.972;9.276;2023-06-26T04:52:01;18.10;99.90
1355;DHT22;671;48.972;9.276;2023-06-26T04:54:27;18.10;99.90
1355;DHT22;671;48.972;9.276;2023-06-26T04:56:54;18.10;99.90
1355;DHT22;671;48.972;9.276;2023-06-26T04:59:21;18.20;99.90
1355;DHT22;671;48.972;9.276;2023-06-26T05:01:47;18.30;99.90
1355;DHT22;671;48.972;9.276;2023-06-26T05:04:15;18.40;99.90
1355;DHT22;671;48.972;9.276;2023-06-26T05:06:42;18.50;99.90
1355;DHT22;671;48.972;9.276;2023-06-26T05:09:08;18.60;99.90
1355;DHT22;671;48.972;9.276;2023-06-26T05:11:35;18.60;99.90
1355;DHT22;671;48.972;9.276;2023-06-26T05:14:01;18.80;99.90
1355;DHT22;671;48.972;9.276;2023-06-26T05:16:28;19.00;99.90
1355;DHT22;671;48.972;9.276;2023-06-26T05:18:54;20.40;99.90
1355;DHT22;671;48.972;9.276;2023-06-26T05:21:21;22.20;99.90
1355;DHT22;671;48.972;9.276;2023-06-26T05:23:48;23.50;99.90
1355;DHT22;671;48.972;9.276;2023-06-26T05:26:16;24.70;99.90
1355;DHT22;671;48.972;9.276;2023-06-26T05:28:42;25.60;99.90
1355;DHT22;671;48.972;9.276;2023-06-26T05:31:15;26.10;99.90
1355;DHT22;671;48.972;9.276;2023-06-26T05:33:44;26.90;98.80
1355;DHT22;671;48.972;9.276;2023-06-26T05:36:12;27.50;97.60
1355;DHT22;671;48.972;9.276;2023-06-26T05:38:39;27.90;96.20
1355;DHT22;671;48.972;9.276;2023-06-26T05:41:06;28.30;95.80
1355;DHT22;671;48.972;9.276;2023-06-26T05:43:33;28.60;94.80
1355;DHT22;671;48.972;9.276;2023-06-26T05:46:00;28.50;94.70
1355;DHT22;671;48.972;9.276;2023-06-26T05:48:27;27.80;94.60
1355;DHT22;671;48.972;9.276;2023-06-26T05:50:53;27.00;95.70
1355;DHT22;671;48.972;9.276;2023-06-26T05:53:20;26.30;96.30
1355;DHT22;671;48.972;9.276;2023-06-26T05:55:47;25.80;96.90
1355;DHT22;671;48.972;9.276;2023-06-26T05:58:14;25.40;97.50
1355;DHT22;671;48.972;9.276;2023-06-26T06:00:42;25.00;98.20
1355;DHT22;671;48.972;9.276;2023-06-26T06:03:09;24.70;99.30
1355;DHT22;671;48.972;9.276;2023-06-26T06:05:36;24.40;99.40
1355;DHT22;671;48.972;9.276;2023-06-26T06:08:03;24.10;99.90
1355;DHT22;671;48.972;9.276;2023-06-26T06:10:30;23.90;99.90
1355;DHT22;671;48.972;9.276;2023-06-26T06:12:56;23.80;99.90
1355;DHT22;671;48.972;9.276;2023-06-26T06:15:23;23.70;99.90
1355;DHT22;671;48.972;9.276;2023-06-26T06:17:49;23.80;99.90
1355;DHT22;671;48.972;9.276;2023-06-26T06:20:17;23.70;99.90
1355;DHT22;671;48.972;9.276;2023-06-26T06:22:46;23.70;99.90
1355;DHT22;671;48.972;9.276;2023-06-26T06:25:12;23.80;99.90
1355;DHT22;671;48.972;9.276;2023-06-26T06:27:39;23.80;99.90
1355;DHT22;671;48.972;9.276;2023-06-26T06:30:06;23.90;99.90
1355;DHT22;671;48.972;9.276;2023-06-26T06:32:33;24.00;99.90
1355;DHT22;671;48.972;9.276;2023-06-26T06:35:00;24.00;99.90
1355;DHT22;671;48.972;9.276;2023-06-26T06:37:30;24.20;99.90
1355;DHT22;671;48.972;9.276;2023-06-26T06:39:57;24.30;99.80
1355;DHT22;671;48.972;9.276;2023-06-26T06:42:25;24.30;99.00
1355;DHT22;671;48.972;9.276;2023-06-26T06:44:52;24.40;98.70
1355;DHT22;671;48.972;9.276;2023-06-26T06:47:18;24.50;98.20
1355;DHT22;671;48.972;9.276;2023-06-26T06:49:45;24.60;97.70
1355;DHT22;671;48.972;9.276;2023-06-26T06:52:11;24.70;99.50
1355;DHT22;671;48.972;9.276;2023-06-26T06:54:55;24.70;98.60
1355;DHT22;671;48.972;9.276;2023-06-26T06:57:22;24.90;98.40
1355;DHT22;671;48.972;9.276;2023-06-26T06:59:48;25.00;98.80
1355;DHT22;671;48.972;9.276;2023-06-26T07:02:17;25.10;99.20
1355;DHT22;671;48.972;9.276;2023-06-26T07:04:43;25.20;98.60
1355;DHT22;671;48.972;9.276;2023-06-26T07:07:10;25.30;99.30
1355;DHT22;671;48.972;9.276;2023-06-26T07:09:37;25.30;98.50
1355;DHT22;671;48.972;9.276;2023-06-26T07:12:03;25.50;98.20
1355;DHT22;671;48.972;9.276;2023-06-26T07:14:30;25.60;97.90
1355;DHT22;671;48.972;9.276;2023-06-26T07:16:56;25.70;98.10
1355;DHT22;671;48.972;9.276;2023-06-26T07:19:23;25.80;98.00
1355;DHT22;671;48.972;9.276;2023-06-26T07:21:49;26.00;97.40
1355;DHT22;671;48.972;9.276;2023-06-26T07:24:16;26.00;96.80
1355;DHT22;671;48.972;9.276;2023-06-26T07:26:42;26.10;96.70
1355;DHT22;671;48.972;9.276;2023-06-26T07:29:09;26.10;96.80
1355;DHT22;671;48.972;9.276;2023-06-26T07:31:36;26.30;96.70
1355;DHT22;671;48.972;9.276;2023-06-26T07:34:02;26.40;96.40
1355;DHT22;671;48.972;9.276;2023-06-26T07:36:29;26.50;96.40
1355;DHT22;671;48.972;9.276;2023-06-26T07:38:55;26.70;96.30
1355;DHT22;671;48.972;9.276;2023-06-26T07:41:22;26.70;95.10
1355;DHT22;671;48.972;9.276;2023-06-26T07:43:48;26.70;95.20
1355;DHT22;671;48.972;9.276;2023-06-26T07:46:15;26.80;95.10
1355;DHT22;671;48.972;9.276;2023-06-26T07:48:41;26.90;95.50
1355;DHT22;671;48.972;9.276;2023-06-26T07:51:08;26.90;95.10
1355;DHT22;671;48.972;9.276;2023-06-26T07:53:34;27.10;94.50
1355;DHT22;671;48.972;9.276;2023-06-26T07:56:01;27.10;94.00
1355;DHT22;671;48.972;9.276;2023-06-26T07:58:27;27.20;92.80
1355;DHT22;671;48.972;9.276;2023-06-26T08:00:54;27.20;92.10
1355;DHT22;671;48.972;9.276;2023-06-26T08:03:20;27.20;92.90
1355;DHT22;671;48.972;9.276;2023-06-26T08:05:47;27.40;93.10
1355;DHT22;671;48.972;9.276;2023-06-26T08:08:14;27.40;92.90
1355;DHT22;671;48.972;9.276;2023-06-26T08:10:40;27.50;92.10
1355;DHT22;671;48.972;9.276;2023-06-26T08:13:07;27.50;92.00
1355;DHT22;671;48.972;9.276;2023-06-26T08:15:33;27.60;92.50
1355;DHT22;671;48.972;9.276;2023-06-26T08:18:00;27.70;92.50
1355;DHT22;671;48.972;9.276;2023-06-26T08:20:26;27.70;91.90
1355;DHT22;671;48.972;9.276;2023-06-26T08:22:52;27.80;92.90
1355;DHT22;671;48.972;9.276;2023-06-26T08:25:20;27.90;91.90
1355;DHT22;671;48.972;9.276;2023-06-26T08:27:47;28.00;92.60
1355;DHT22;671;48.972;9.276;2023-06-26T08:30:14;28.00;92.20
1355;DHT22;671;48.972;9.276;2023-06-26T08:32:40;28.10;92.80
1355;DHT22;671;48.972;9.276;2023-06-26T08:35:07;28.30;92.20
1355;DHT22;671;48.972;9.276;2023-06-26T08:37:36;28.40;93.20
1355;DHT22;671;48.972;9.276;2023-06-26T08:40:03;28.60;92.50
1355;DHT22;671;48.972;9.276;2023-06-26T08:42:30;28.70;92.20
1355;DHT22;671;48.972;9.276;2023-06-26T08:44:57;28.80;91.60
1355;DHT22;671;48.972;9.276;2023-06-26T08:47:23;28.90;91.90
1355;DHT22;671;48.972;9.276;2023-06-26T08:50:10;29.00;91.70
1355;DHT22;671;48.972;9.276;2023-06-26T08:52:56;29.20;92.00
1355;DHT22;671;48.972;9.276;2023-06-26T08:55:27;29.20;90.80
1355;DHT22;671;48.972;9.276;2023-06-26T08:57:55;29.20;92.00
1355;DHT22;671;48.972;9.276;2023-06-26T09:00:21;29.30;90.60
1355;DHT22;671;48.972;9.276;2023-06-26T09:02:48;29.40;91.40
1355;DHT22;671;48.972;9.276;2023-06-26T09:05:15;29.60;90.70
1355;DHT22;671;48.972;9.276;2023-06-26T09:07:42;29.70;91.00
1355;DHT22;671;48.972;9.276;2023-06-26T09:10:08;29.70;90.90
1355;DHT22;671;48.972;9.276;2023-06-26T09:12:36;29.90;90.70
1355;DHT22;671;48.972;9.276;2023-06-26T09:15:04;30.10;91.30
1355;DHT22;671;48.972;9.276;2023-06-26T09:17:34;30.30;91.00
1355;DHT22;671;48.972;9.276;2023-06-26T09:20:04;30.40;90.00
1355;DHT22;671;48.972;9.276;2023-06-26T09:22:36;30.40;90.30
1355;DHT22;671;48.972;9.276;2023-06-26T09:25:03;30.50;90.30
1355;DHT22;671;48.972;9.276;2023-06-26T09:27:30;30.60;89.60
1355;DHT22;671;48.972;9.276;2023-06-26T09:29:57;30.60;89.10
1355;DHT22;671;48.972;9.276;2023-06-26T09:32:25;30.70;86.80
1355;DHT22;671;48.972;9.276;2023-06-26T09:34:53;30.70;88.30
1355;DHT22;671;48.972;9.276;2023-06-26T09:37:22;30.80;88.50
1355;DHT22;671;48.972;9.276;2023-06-26T09:39:51;31.00;88.20
1355;DHT22;671;48.972;9.276;2023-06-26T09:42:19;31.10;86.50
1355;DHT22;671;48.972;9.276;2023-06-26T09:44:47;31.10;85.80
1355;DHT22;671;48.972;9.276;2023-06-26T09:47:19;31.10;84.10
1355;DHT22;671;48.972;9.276;2023-06-26T09:49:45;31.10;86.40
1355;DHT22;671;48.972;9.276;2023-06-26T09:52:15;31.20;83.90
1355;DHT22;671;48.972;9.276;2023-06-26T09:54:43;31.10;84.70
1355;DHT22;671;48.972;9.276;2023-06-26T09:57:15;31.20;86.00
1355;DHT22;671;48.972;9.276;2023-06-26T09:59:42;31.40;85.10
1355;DHT22;671;48.972;9.276;2023-06-26T10:02:09;31.40;85.30
1355;DHT22;671;48.972;9.276;2023-06-26T10:04:37;31.50;82.60
1355;DHT22;671;48.972;9.276;2023-06-26T10:07:10;31.60;82.80
1355;DHT22;671;48.972;9.276;2023-06-26T10:09:46;31.60;84.30
1355;DHT22;671;48.972;9.276;2023-06-26T10:12:20;31.80;83.00
1355;DHT22;671;48.972;9.276;2023-06-26T10:14:48;31.70;83.90
1355;DHT22;671;48.972;9.276;2023-06-26T10:17:18;31.70;84.50
1355;DHT22;671;48.972;9.276;2023-06-26T10:19:47;31.80;83.50
1355;DHT22;671;48.972;9.276;2023-06-26T10:22:18;31.70;82.80
1355;DHT22;671;48.972;9.276;2023-06-26T10:24:47;31.90;82.40
1355;DHT22;671;48.972;9.276;2023-06-26T10:27:20;32.10;82.40
1355;DHT22;671;48.972;9.276;2023-06-26T10:29:51;32.10;82.90
1355;DHT22;671;48.972;9.276;2023-06-26T10:32:20;32.10;83.90
1355;DHT22;671;48.972;9.276;2023-06-26T10:34:47;32.20;83.50
1355;DHT22;671;48.972;9.276;2023-06-26T10:37:14;32.40;82.70
1355;DHT22;671;48.972;9.276;2023-06-26T10:39:51;32.40;82.70
1355;DHT22;671;48.972;9.276;2023-06-26T10:42:35;32.50;81.70
1355;DHT22;671;48.972;9.276;2023-06-26T10:47:41;32.50;82.10
1355;DHT22;671;48.972;9.276;2023-06-26T10:50:37;32.40;81.60
1355;DHT22;671;48.972;9.276;2023-06-26T10:55:55;31.90;83.80
1355;DHT22;671;48.972;9.276;2023-06-26T11:01:23;32.00;85.30
1355;DHT22;671;48.972;9.276;2023-06-26T11:06:28;31.80;84.30
1355;DHT22;671;48.972;9.276;2023-06-26T11:14:25;32.00;84.10
1355;DHT22;671;48.972;9.276;2023-06-26T11:16:52;32.00;83.90
1355;DHT22;671;48.972;9.276;2023-06-26T11:19:19;32.00;84.20
1355;DHT22;671;48.972;9.276;2023-06-26T11:21:46;32.00;85.60
1355;DHT22;671;48.972;9.276;2023-06-26T11:24:13;32.20;85.80
1355;DHT22;671;48.972;9.276;2023-06-26T11:26:41;32.30;86.00
1355;DHT22;671;48.972;9.276;2023-06-26T11:29:09;32.20;86.50
1355;DHT22;671;48.972;9.276;2023-06-26T11:31:40;32.10;86.80
1355;DHT22;671;48.972;9.276;2023-06-26T11:34:09;32.00;87.50
1355;DHT22;671;48.972;9.276;2023-06-26T11:36:43;32.00;88.20
1355;DHT22;671;48.972;9.276;2023-06-26T11:39:12;32.00;86.70
1355;DHT22;671;48.972;9.276;2023-06-26T11:41:39;32.10;87.60
1355;DHT22;671;48.972;9.276;2023-06-26T11:44:09;32.00;86.90
1355;DHT22;671;48.972;9.276;2023-06-26T11:46:36;32.00;87.10
1355;DHT22;671;48.972;9.276;2023-06-26T11:49:04;32.00;87.50
1355;DHT22;671;48.972;9.276;2023-06-26T11:51:30;32.20;87.40
1355;DHT22;671;48.972;9.276;2023-06-26T11:53:57;32.20;88.10
1355;DHT22;671;48.972;9.276;2023-06-26T11:56:27;32.20;87.10
1355;DHT22;671;48.972;9.276;2023-06-26T11:59:10;32.10;87.30
1355;DHT22;671;48.972;9.276;2023-06-26T12:01:41;31.80;87.00
1355;DHT22;671;48.972;9.276;2023-06-26T12:04:10;31.60;87.60
1355;DHT22;671;48.972;9.276;2023-06-26T12:06:44;31.60;89.10
1355;DHT22;671;48.972;9.276;2023-06-26T12:09:12;31.70;89.60
1355;DHT22;671;48.972;9.276;2023-06-26T12:11:41;31.60;89.10
1355;DHT22;671;48.972;9.276;2023-06-26T12:14:09;31.60;89.40
1355;DHT22;671;48.972;9.276;2023-06-26T12:16:37;31.60;90.00
1355;DHT22;671;48.972;9.276;2023-06-26T12:19:07;31.60;90.40
1355;DHT22;671;48.972;9.276;2023-06-26T12:24:04;31.80;90.30
1355;DHT22;671;48.972;9.276;2023-06-26T12:26:31;31.80;90.00
1355;DHT22;671;48.972;9.276;2023-06-26T12:31:31;31.60;90.00
1355;DHT22;671;48.972;9.276;2023-06-26T12:33:59;31.50;90.40
1355;DHT22;671;48.972;9.276;2023-06-26T12:36:26;31.60;90.40
1355;DHT22;671;48.972;9.276;2023-06-26T12:38:53;31.60;89.20
1355;DHT22;671;48.972;9.276;2023-06-26T12:41:24;31.70;90.20
1355;DHT22;671;48.972;9.276;2023-06-26T12:43:56;31.70;89.80
1355;DHT22;671;48.972;9.276;2023-06-26T12:46:33;31.80;90.20
1355;DHT22;671;48.972;9.276;2023-06-26T12:49:01;31.70;89.80
1355;DHT22;671;48.972;9.276;2023-06-26T12:51:29;31.80;89.80
1355;DHT22;671;48.972;9.276;2023-06-26T12:53:55;31.70;89.50
1355;DHT22;671;48.972;9.276;2023-06-26T12:56:22;31.60;90.00
1355;DHT22;671;48.972;9.276;2023-06-26T12:58:48;31.60;89.40
1355;DHT22;671;48.972;9.276;2023-06-26T13:01:15;31.60;89.00
1355;DHT22;671;48.972;9.276;2023-06-26T13:03:41;31.40;90.30
1355;DHT22;671;48.972;9.276;2023-06-26T13:06:08;31.50;88.30
1355;DHT22;671;48.972;9.276;2023-06-26T13:08:35;31.60;89.10
1355;DHT22;671;48.972;9.276;2023-06-26T13:11:01;31.60;89.40
1355;DHT22;671;48.972;9.276;2023-06-26T13:13:28;31.60;88.30
1355;DHT22;671;48.972;9.276;2023-06-26T13:15:55;31.70;87.40
1355;DHT22;671;48.972;9.276;2023-06-26T13:18:21;31.80;87.70
1355;DHT22;671;48.972;9.276;2023-06-26T13:20:48;31.80;87.90
1355;DHT22;671;48.972;9.276;2023-06-26T13:23:14;31.80;85.70
1355;DHT22;671;48.972;9.276;2023-06-26T13:25:41;32.00;85.90
1355;DHT22;671;48.972;9.276;2023-06-26T13:28:08;31.90;82.80
1355;DHT22;671;48.972;9.276;2023-06-26T13:30:35;31.80;82.00
1355;DHT22;671;48.972;9.276;2023-06-26T13:33:03;31.60;81.10
1355;DHT22;671;48.972;9.276;2023-06-26T13:35:30;31.60;81.70
1355;DHT22;671;48.972;9.276;2023-06-26T13:37:56;31.60;81.20
1355;DHT22;671;48.972;9.276;2023-06-26T13:40:23;31.60;82.10
1355;DHT22;671;48.972;9.276;2023-06-26T13:42:49;31.60;82.00
1355;DHT22;671;48.972;9.276;2023-06-26T13:45:16;31.80;82.20
1355;DHT22;671;48.972;9.276;2023-06-26T13:47:42;31.70;80.00
1355;DHT22;671;48.972;9.276;2023-06-26T13:50:09;31.70;79.40
1355;DHT22;671;48.972;9.276;2023-06-26T13:52:36;31.70;80.60
1355;DHT22;671;48.972;9.276;2023-06-26T13:55:03;31.70;78.20
1355;DHT22;671;48.972;9.276;2023-06-26T13:57:33;31.70;78.70
1355;DHT22;671;48.972;9.276;2023-06-26T14:00:00;31.60;78.40
1355;DHT22;671;48.972;9.276;2023-06-26T14:02:26;31.70;78.30
1355;DHT22;671;48.972;9.276;2023-06-26T14:04:53;31.70;76.50
1355;DHT22;671;48.972;9.276;2023-06-26T14:07:19;31.50;75.30
1355;DHT22;671;48.972;9.276;2023-06-26T14:09:46;31.50;77.90
1355;DHT22;671;48.972;9.276;2023-06-26T14:12:12;31.60;77.40
1355;DHT22;671;48.972;9.276;2023-06-26T14:14:39;31.70;76.70
1355;DHT22;671;48.972;9.276;2023-06-26T14:17:05;31.60;75.90
1355;DHT22;671;48.972;9.276;2023-06-26T14:19:32;31.60;75.80
1355;DHT22;671;48.972;9.276;2023-06-26T14:21:58;31.60;77.10
1355;DHT22;671;48.972;9.276;2023-06-26T14:24:25;31.70;77.20
1355;DHT22;671;48.972;9.276;2023-06-26T14:26:52;31.80;77.40
1355;DHT22;671;48.972;9.276;2023-06-26T14:29:18;31.80;75.80
1355;DHT22;671;48.972;9.276;2023-06-26T14:31:46;31.60;76.00
1355;DHT22;671;48.972;9.276;2023-06-26T14:34:13;31.60;76.20
1355;DHT22;671;48.972;9.276;2023-06-26T14:36:39;31.50;75.40
1355;DHT22;671;48.972;9.276;2023-06-26T14:39:06;31.40;77.50
1355;DHT22;671;48.972;9.276;2023-06-26T14:41:32;31.30;76.60
1355;DHT22;671;48.972;9.276;2023-06-26T14:43:59;31.40;77.30
1355;DHT22;671;48.972;9.276;2023-06-26T14:46:27;31.40;76.80
1355;DHT22;671;48.972;9.276;2023-06-26T14:48:53;31.60;78.30
1355;DHT22;671;48.972;9.276;2023-06-26T14:51:21;31.60;77.50
1355;DHT22;671;48.972;9.276;2023-06-26T14:53:48;31.60;77.40
1355;DHT22;671;48.972;9.276;2023-06-26T14:56:14;31.70;77.20
1355;DHT22;671;48.972;9.276;2023-06-26T14:58:41;31.60;76.60
1355;DHT22;671;48.972;9.276;2023-06-26T15:01:07;31.60;76.80
1355;DHT22;671;48.972;9.276;2023-06-26T15:03:35;31.60;76.50
1355;DHT22;671;48.972;9.276;2023-06-26T15:06:01;31.60;76.30
1355;DHT22;671;48.972;9.276;2023-06-26T15:08:28;31.60;77.90
1355;DHT22;671;48.972;9.276;2023-06-26T15:10:54;31.50;76.40
1355;DHT22;671;48.972;9.276;2023-06-26T15:13:21;31.60;77.50
1355;DHT22;671;48.972;9.276;2023-06-26T15:15:47;31.50;77.50
1355;DHT22;671;48.972;9.276;2023-06-26T15:18:14;31.30;76.50
1355;DHT22;671;48.972;9.276;2023-06-26T15:20:40;31.30;75.70
1355;DHT22;671;48.972;9.276;2023-06-26T15:23:07;31.30;75.90
1355;DHT22;671;48.972;9.276;2023-06-26T15:25:33;31.20;76.50
1355;DHT22;671;48.972;9.276;2023-06-26T15:28:03;31.20;75.00
1355;DHT22;671;48.972;9.276;2023-06-26T15:30:30;31.00;74.60
1355;DHT22;671;48.972;9.276;2023-06-26T15:32:57;31.00;75.00
1355;DHT22;671;48.972;9.276;2023-06-26T15:35:23;30.90;75.20
1355;DHT22;671;48.972;9.276;2023-06-26T15:37:50;30.90;76.70
1355;DHT22;671;48.972;9.276;2023-06-26T15:40:16;30.80;75.70
1355;DHT22;671;48.972;9.276;2023-06-26T15:42:50;30.80;75.50
1355;DHT22;671;48.972;9.276;2023-06-26T15:45:17;30.80;76.30
1355;DHT22;671;48.972;9.276;2023-06-26T15:47:52;30.90;76.20
1355;DHT22;671;48.972;9.276;2023-06-26T15:50:19;30.80;76.10
1355;DHT22;671;48.972;9.276;2023-06-26T15:52:46;30.70;76.70
1355;DHT22;671;48.972;9.276;2023-06-26T15:55:12;30.60;76.70
1355;DHT22;671;48.972;9.276;2023-06-26T15:57:39;30.40;76.20
1355;DHT22;671;48.972;9.276;2023-06-26T16:00:07;30.40;76.90
1355;DHT22;671;48.972;9.276;2023-06-26T16:02:33;30.30;76.90
1355;DHT22;671;48.972;9.276;2023-06-26T16:05:00;30.20;77.10
1355;DHT22;671;48.972;9.276;2023-06-26T16:07:27;30.20;78.60
1355;DHT22;671;48.972;9.276;2023-06-26T16:09:56;30.30;78.10
1355;DHT22;671;48.972;9.276;2023-06-26T16:12:22;30.20;76.60
1355;DHT22;671;48.972;9.276;2023-06-26T16:14:49;30.00;74.90
1355;DHT22;671;48.972;9.276;2023-06-26T16:17:16;30.00;74.90
1355;DHT22;671;48.972;9.276;2023-06-26T16:19:42;30.00;75.90
1355;DHT22;671;48.972;9.276;2023-06-26T16:22:09;30.10;76.30
1355;DHT22;671;48.972;9.276;2023-06-26T16:24:35;30.10;76.40
1355;DHT22;671;48.972;9.276;2023-06-26T16:27:02;30.20;75.80
1355;DHT22;671;48.972;9.276;2023-06-26T16:29:29;30.40;75.50
1355;DHT22;671;48.972;9.276;2023-06-26T16:31:55;30.30;74.40
1355;DHT22;671;48.972;9.276;2023-06-26T16:34:22;30.20;75.20
1355;DHT22;671;48.972;9.276;2023-06-26T16:36:48;30.00;74.30
1355;DHT22;671;48.972;9.276;2023-06-26T16:39:15;30.00;74.40
1355;DHT22;671;48.972;9.276;2023-06-26T16:41:47;30.00;73.20
1355;DHT22;671;48.972;9.276;2023-06-26T16:44:15;29.90;70.30